Accueil
METAR-TAF:

METAR-TAF

Aéroports :

Base aérienne

Niederstetten, Allemagne

latitude: 49-24N, longitude: 009-58E, altitude: 468 m

Observation

Le bulletin a été fait il y a 9 minutes, à 23:24 UTC
Vent 3 kt de sud-ouest
Température 20°C
Humidité 60%
Pression 1014 hPa
Visibilité 10 km ou plus
Quelques nuages à une hauteur de 30000 ft

METAR: ETHN 092324Z 22003KT 9999 FEW300 20/12 Q1014 BLU+

Heure: 01:33 (23:33 UTC)

Prévision

Le bulletin a été fait il y a 10 heures et 32 minutes, à 13:01 UTC
Prévision valable du 09 à 14 UTC au 09 à 23 UTC
Vent 15 kt de ouest avec des rafales jusqu'à 25 kt
Visibilité 10 km ou plus
Quelques nuages à une hauteur de 5000 ft

TAF: ETHN 091301Z 0914/0923 27015G25KT 9999 NSW FEW050

Observations et prévisions météorologiques de plus de 4000 aéroports (messages METAR et TAF).

Les stations disponibles sont représentées par des disques jaunes et rouges sur la carte.

Passer la souris dessus pour voir le nom de la station.

Cliquer dessus pour voir les observations et prévisions météorologiques.

Pour changer de carte: cliquez sur les boutons verts avec une croix noire pour zoomer, sur le bouton vert avec un tiret pour effectuer un zoom arrière, ou sur les flèches vertes pour les cartes adjacentes.


METAR-TAF: